PAGY Airport (Skagway) Information

FAA: SGY - ICAO: PAGY

PAGY Airport Location

State Alaska
County Skagway-Hoonah-Angoon
City Skagway
PAGY Airport is 0 miles northwest of Skagway, AK.
Latitude 59-27-36.7200N
Longitude 135-19-00.6950W
Elevation 44ft

PAGY Airport METARs

METAR PAGY 071905Z AUTO 00000KT 1SM -SN BR VV016 01/00 A2941 RMK AO2 P0001 T00060000 TSNO
Altimeter 29.41"
Temperature 0.6°C (33.1°F)
Wind 0° at 0KT
Clouds at 0ft
Visibility 1.0mi
Time observed: 2022-12-07T19:05:00Z

PAGY Airport Details

Status Operational
Activation February 1947
Ownership Public
Usage Public
Chart JUNEAU
ATC on-site No
Beacon schedule N/A
Beacon color N/A

PAGY Airport Contacts

Owner ALASKA DOT&PF SOUTHCOAST REGION
Owner address P.O. BOX 112506, JUNEAU, AK 99811-2506
Owner phone (907) 983-2323
Manager SCOTT RANDBY
Manager address 2301 PEGER RD, FAIRBANKS, AK 99709
Manager phone (907) 451-5280

PAGY Airport (Skagway) Radio Frequencies

PAGY (Airport) Radio Frequencies

UNICOM N/A
Common traffic advisory frequency (CTAF) 122.9